createdAt,value
2022-09-15T00:02:32.380Z,978.2
2022-09-15T00:07:51.958Z,978.3
2022-09-15T00:13:19.663Z,978.3
2022-09-15T00:18:31.229Z,978.2
2022-09-15T00:23:50.960Z,978.2
2022-09-15T00:29:10.183Z,978.2
2022-09-15T00:34:28.786Z,978.3
2022-09-15T00:39:48.314Z,978.2
2022-09-15T00:45:08.267Z,978.2
2022-09-15T00:50:27.255Z,978.2
2022-09-15T00:55:46.856Z,978.2
2022-09-15T01:01:05.497Z,978.1
2022-09-15T01:06:25.239Z,978.1
2022-09-15T01:11:54.358Z,978.1
2022-09-15T01:17:03.659Z,978
2022-09-15T01:22:22.653Z,978
2022-09-15T01:27:42.762Z,978
2022-09-15T01:33:00.861Z,977.9
2022-09-15T01:38:20.256Z,978
2022-09-15T01:43:39.103Z,977.9
2022-09-15T01:48:58.762Z,977.8
2022-09-15T01:54:18.430Z,977.7
2022-09-15T01:59:37.198Z,977.7
2022-09-15T02:04:57.479Z,977.6
2022-09-15T02:10:16.256Z,977.6
2022-09-15T02:15:34.906Z,977.5
2022-09-15T02:20:53.567Z,977.5
2022-09-15T02:26:13.226Z,977.5
2022-09-15T02:31:32.709Z,977.5
2022-09-15T02:36:52.069Z,977.5
2022-09-15T02:42:11.836Z,977.5
2022-09-15T02:47:57.159Z,977.5
2022-09-15T02:53:15.307Z,977.5
2022-09-15T02:58:43.231Z,977.5
2022-09-15T03:03:53.248Z,977.5
2022-09-15T03:09:11.866Z,977.5
2022-09-15T03:14:31.055Z,977.6
2022-09-15T03:19:50.542Z,977.5
2022-09-15T03:25:09.563Z,977.5
2022-09-15T03:30:29.203Z,977.5
2022-09-15T03:35:48.705Z,977.5
2022-09-15T03:41:07.888Z,977.4
2022-09-15T03:46:26.885Z,977.4
2022-09-15T03:51:46.450Z,977.4
2022-09-15T03:57:05.066Z,977.3
2022-09-15T04:02:24.151Z,977.3
2022-09-15T04:07:43.362Z,977.2
2022-09-15T04:13:10.793Z,977.3
2022-09-15T04:18:22.665Z,977.2
2022-09-15T04:23:41.655Z,977.2
2022-09-15T04:29:04.109Z,977.2
2022-09-15T04:34:19.804Z,977.2
2022-09-15T04:39:38.900Z,977.3
2022-09-15T04:44:58.001Z,977.2
2022-09-15T04:50:16.956Z,977.3
2022-09-15T04:55:36.244Z,977.3
2022-09-15T05:00:56.007Z,977.3
2022-09-15T05:06:14.857Z,977.4
2022-09-15T05:11:33.795Z,977.3
2022-09-15T05:16:53.169Z,977.4
2022-09-15T05:22:12.930Z,977.6
2022-09-15T05:27:32.245Z,977.6
2022-09-15T05:32:51.481Z,977.7
2022-09-15T05:38:10.309Z,977.8
2022-09-15T05:43:29.074Z,977.9
2022-09-15T05:48:47.978Z,977.9
2022-09-15T05:54:06.807Z,978
2022-09-15T05:59:25.954Z,978
2022-09-15T06:04:44.720Z,978.1
2022-09-15T06:10:03.873Z,978.2
2022-09-15T06:15:23.945Z,978.2
2022-09-15T06:20:42.580Z,978.3
2022-09-15T06:26:01.528Z,978.3
2022-09-15T06:31:21.056Z,978.4
2022-09-15T06:36:39.940Z,978.4
2022-09-15T06:42:02.593Z,978.5
2022-09-15T06:47:18.252Z,978.6
2022-09-15T06:52:37.343Z,978.7
2022-09-15T06:57:56.440Z,978.7
2022-09-15T07:03:16.092Z,978.8
2022-09-15T07:08:35.007Z,978.8
2022-09-15T07:13:54.466Z,978.8
2022-09-15T07:19:13.819Z,978.8
2022-09-15T07:24:32.694Z,978.9
2022-09-15T07:29:52.040Z,978.9
2022-09-15T07:35:10.950Z,978.9
2022-09-15T07:40:29.953Z,979
2022-09-15T07:45:49.425Z,979.2
2022-09-15T07:51:08.360Z,979.3
2022-09-15T07:56:27.956Z,979.4
2022-09-15T08:01:46.657Z,979.5
2022-09-15T08:07:06.254Z,979.5
2022-09-15T08:12:25.266Z,979.6
2022-09-15T08:17:44.149Z,979.8
2022-09-15T08:23:03.126Z,979.8
2022-09-15T08:28:22.117Z,979.8
2022-09-15T08:33:45.383Z,979.8
2022-09-15T08:39:00.503Z,979.8
2022-09-15T08:44:19.573Z,980
2022-09-15T08:49:50.896Z,980.1
2022-09-15T08:54:57.977Z,980.2
2022-09-15T09:00:17.343Z,980.4
2022-09-15T09:10:55.738Z,980.4
2022-09-15T09:16:15.009Z,980.5
2022-09-15T09:21:33.894Z,980.5
2022-09-15T09:26:53.232Z,980.6
2022-09-15T09:32:12.895Z,980.6
2022-09-15T09:37:31.783Z,980.6
2022-09-15T09:42:52.057Z,980.6
2022-09-15T09:48:10.403Z,980.7
2022-09-15T09:53:29.383Z,980.7
2022-09-15T09:58:48.731Z,980.5
2022-09-15T10:04:08.099Z,980.6
2022-09-15T10:09:32.665Z,980.5
2022-09-15T10:14:47.492Z,980.4
2022-09-15T10:20:06.248Z,980.4
2022-09-15T10:25:32.609Z,980.4
2022-09-15T10:30:44.074Z,980.4
2022-09-15T10:36:02.910Z,980.4
2022-09-15T10:41:22.444Z,980.5
2022-09-15T10:46:41.950Z,980.5
2022-09-15T10:52:00.735Z,980.6
2022-09-15T10:57:19.383Z,980.5
2022-09-15T11:02:39.769Z,980.5
2022-09-15T11:07:59.069Z,980.6
2022-09-15T11:13:18.218Z,980.7
2022-09-15T11:18:37.845Z,980.7
2022-09-15T11:23:57.163Z,980.8
2022-09-15T11:29:15.651Z,980.8
2022-09-15T11:34:35.832Z,980.9
2022-09-15T11:41:10.012Z,980.8
2022-09-15T11:45:13.636Z,980.8
2022-09-15T11:50:32.881Z,980.9
2022-09-15T11:55:52.173Z,980.8
2022-09-15T12:01:11.191Z,980.8
2022-09-15T12:06:30.522Z,980.9
2022-09-15T12:11:50.027Z,980.9
2022-09-15T12:17:08.837Z,980.9
2022-09-15T12:22:27.862Z,980.9
2022-09-15T12:27:47.107Z,980.9
2022-09-15T12:33:06.025Z,980.9
2022-09-15T12:38:25.119Z,980.9
2022-09-15T12:43:44.153Z,980.9
2022-09-15T12:49:03.696Z,981
2022-09-15T12:54:22.491Z,981.1
2022-09-15T12:59:42.037Z,981.1
2022-09-15T13:05:10.568Z,981.2
2022-09-15T13:10:21.577Z,981.2
2022-09-15T13:16:55.736Z,981.1
2022-09-15T13:21:10.423Z,981.1
2022-09-15T13:26:19.130Z,981.1
2022-09-15T13:31:37.594Z,981.1
2022-09-15T13:42:16.775Z,981
2022-09-15T13:47:36.087Z,980.9
2022-09-15T13:54:34.697Z,980.9
2022-09-15T14:03:34.408Z,980.8
2022-09-15T14:08:53.824Z,980.8
2022-09-15T14:14:13.074Z,980.9
2022-09-15T14:19:31.925Z,980.8
2022-09-15T14:24:51.233Z,980.8
2022-09-15T14:33:24.306Z,980.8
2022-09-15T14:37:40.786Z,980.9
2022-09-15T14:41:56.268Z,981
2022-09-15T14:48:54.754Z,981.1
2022-09-15T14:57:30.975Z,981.2
2022-09-15T15:02:02.992Z,981.3
2022-09-15T15:07:21.959Z,981.4
2022-09-15T15:12:41.096Z,981.4
2022-09-15T15:18:00.317Z,981.4
2022-09-15T15:23:20.489Z,981.5
2022-09-15T15:29:54.646Z,981.5
2022-09-15T15:39:18.978Z,981.5
2022-09-15T15:44:37.715Z,981.5
2022-09-15T15:53:10.773Z,981.5
2022-09-15T15:55:15.043Z,981.6
2022-09-15T16:00:34.559Z,981.6
2022-09-15T16:05:53.799Z,981.6
2022-09-15T16:11:12.118Z,981.6
2022-09-15T16:16:31.786Z,981.7
2022-09-15T16:21:50.470Z,981.7
2022-09-15T16:28:14.222Z,981.6
2022-09-15T16:32:29.375Z,981.6
2022-09-15T16:37:48.767Z,981.7
2022-09-15T16:44:22.906Z,981.8
2022-09-15T16:48:28.217Z,981.8
2022-09-15T16:53:45.015Z,981.8
2022-09-15T16:59:04.613Z,981.9
2022-09-15T17:05:38.761Z,982
2022-09-15T17:09:42.526Z,982.1
2022-09-15T17:16:41.158Z,982.1
2022-09-15T17:20:22.857Z,982.2
2022-09-15T17:36:19.371Z,982.3
2022-09-15T17:46:57.235Z,982.3
2022-09-15T17:52:14.891Z,982.3
2022-09-15T17:57:33.742Z,982.4
2022-09-15T18:02:52.096Z,982.3
2022-09-15T18:08:11.420Z,982.3
2022-09-15T18:13:30.967Z,982.4
2022-09-15T18:18:50.112Z,982.4
2022-09-15T18:24:09.339Z,982.5
2022-09-15T18:29:29.146Z,982.6
2022-09-15T18:34:47.467Z,982.6
2022-09-15T18:40:06.231Z,982.7
2022-09-15T18:45:25.620Z,982.7
2022-09-15T18:50:44.323Z,982.8
2022-09-15T18:56:03.633Z,982.9
2022-09-15T19:01:22.869Z,982.9
2022-09-15T19:06:41.896Z,982.8
2022-09-15T19:12:00.671Z,982.9
2022-09-15T19:17:19.968Z,982.9
2022-09-15T19:22:39.143Z,983
2022-09-15T19:27:58.626Z,983
2022-09-15T19:33:18.232Z,982.9
2022-09-15T19:38:36.675Z,982.9
2022-09-15T19:43:56.533Z,983
2022-09-15T19:49:14.794Z,983
2022-09-15T19:54:34.617Z,983
2022-09-15T19:59:53.945Z,983
2022-09-15T20:05:12.373Z,983.1
2022-09-15T20:10:32.386Z,983.2
2022-09-15T20:15:51.850Z,983.2
2022-09-15T20:22:26.044Z,983.1
2022-09-15T20:26:41.402Z,983
2022-09-15T20:31:49.078Z,982.9
2022-09-15T20:38:23.248Z,983
2022-09-15T20:42:27.496Z,983
2022-09-15T20:47:47.800Z,983.1
2022-09-15T20:53:06.106Z,983
2022-09-15T20:58:25.850Z,983.1
2022-09-15T21:05:00.005Z,983.1
2022-09-15T21:14:24.435Z,983.1
2022-09-15T21:18:41.109Z,983.1
2022-09-15T21:27:46.647Z,983.1
2022-09-15T21:36:19.860Z,983.2
2022-09-15T21:41:38.668Z,983.2
2022-09-15T21:46:59.031Z,983.1
2022-09-15T21:53:33.201Z,983.1
2022-09-15T21:57:37.219Z,983.2
2022-09-15T22:02:56.229Z,983.4
2022-09-15T22:08:14.353Z,983.3
2022-09-15T22:13:34.186Z,983.3
2022-09-15T22:20:08.300Z,983.3
2022-09-15T22:24:14.164Z,983.4
2022-09-15T22:29:31.433Z,983.4
2022-09-15T22:34:50.886Z,983.4
2022-09-15T22:40:10.545Z,983.5
2022-09-15T22:45:28.964Z,983.5
2022-09-15T22:50:56.578Z,983.4
2022-09-15T22:56:08.216Z,983.6
2022-09-15T23:01:28.516Z,983.5
2022-09-15T23:06:47.349Z,983.3
2022-09-15T23:12:06.889Z,983.4
2022-09-15T23:18:41.080Z,983.4
2022-09-15T23:28:05.312Z,983.4
2022-09-15T23:33:22.354Z,983.4
2022-09-15T23:38:42.497Z,983.4
2022-09-15T23:44:01.002Z,983.4
2022-09-15T23:49:20.921Z,983.5
2022-09-15T23:55:55.089Z,983.5
2022-09-15T23:59:58.422Z,983.5
